createdAt,value
2018-06-19T00:00:09.465Z,0.00
2018-06-19T00:01:09.464Z,0.00
2018-06-19T00:02:09.465Z,0.00
2018-06-19T00:03:09.466Z,0.00
2018-06-19T00:04:09.468Z,0.00
2018-06-19T00:05:09.470Z,0.00
2018-06-19T00:06:09.470Z,0.00
2018-06-19T00:07:09.472Z,0.00
2018-06-19T00:08:09.474Z,0.00
2018-06-19T00:09:09.475Z,0.00
2018-06-19T00:10:09.476Z,0.00
2018-06-19T00:11:09.478Z,0.00
2018-06-19T00:12:09.478Z,0.00
2018-06-19T00:13:09.481Z,0.00
2018-06-19T00:14:09.481Z,0.00
2018-06-19T00:15:09.482Z,0.00
2018-06-19T00:16:09.485Z,0.00
2018-06-19T00:17:09.485Z,0.00
2018-06-19T00:18:09.485Z,0.00
2018-06-19T00:19:09.487Z,0.00
2018-06-19T00:20:09.488Z,0.00
2018-06-19T00:21:09.495Z,0.00
2018-06-19T00:22:09.490Z,0.00
2018-06-19T00:23:09.491Z,0.00
2018-06-19T00:24:09.496Z,0.00
2018-06-19T00:25:09.496Z,0.00
2018-06-19T00:26:09.496Z,0.00
2018-06-19T00:27:09.500Z,0.00
2018-06-19T00:28:09.499Z,0.00
2018-06-19T00:29:09.499Z,0.00
2018-06-19T00:30:09.500Z,0.00
2018-06-19T00:31:09.502Z,0.00
2018-06-19T00:32:09.503Z,0.00
2018-06-19T00:33:09.505Z,0.00
2018-06-19T00:34:09.505Z,0.00
2018-06-19T00:35:09.506Z,0.00
2018-06-19T00:36:09.511Z,0.00
2018-06-19T00:37:09.513Z,0.00
2018-06-19T00:38:09.510Z,0.00
2018-06-19T00:39:09.512Z,0.00
2018-06-19T00:40:09.512Z,0.00
2018-06-19T00:41:09.515Z,0.00
2018-06-19T00:42:09.515Z,0.00
2018-06-19T00:43:09.517Z,0.00
2018-06-19T00:44:09.518Z,0.00
2018-06-19T00:45:09.519Z,0.00
2018-06-19T00:46:09.520Z,0.00
2018-06-19T00:47:09.522Z,0.00
2018-06-19T00:48:09.521Z,0.00
2018-06-19T00:49:09.525Z,0.00
2018-06-19T00:50:09.525Z,0.00
2018-06-19T00:51:09.527Z,0.00
2018-06-19T00:52:09.529Z,0.00
2018-06-19T00:53:09.531Z,0.00
2018-06-19T00:54:09.531Z,0.00
2018-06-19T00:55:09.532Z,0.00
2018-06-19T00:56:09.534Z,0.00
2018-06-19T00:57:09.540Z,0.00
2018-06-19T00:58:09.536Z,0.00
2018-06-19T00:59:09.538Z,0.00
2018-06-19T01:00:09.539Z,0.00
2018-06-19T01:01:09.543Z,0.00
2018-06-19T01:02:09.547Z,0.00
2018-06-19T01:03:09.543Z,0.00
2018-06-19T01:04:09.546Z,0.00
2018-06-19T01:05:09.547Z,0.00
2018-06-19T01:06:09.547Z,0.00
2018-06-19T01:07:09.548Z,0.00
2018-06-19T01:08:09.551Z,0.00
2018-06-19T01:09:09.553Z,0.00
2018-06-19T01:10:09.554Z,0.00
2018-06-19T01:11:09.555Z,0.00
2018-06-19T01:12:09.557Z,0.00
2018-06-19T01:13:09.559Z,0.00
2018-06-19T01:14:09.559Z,0.00
2018-06-19T01:15:09.561Z,0.00
2018-06-19T01:16:09.562Z,0.00
2018-06-19T01:17:09.565Z,0.00
2018-06-19T01:18:09.565Z,0.00
2018-06-19T01:19:09.567Z,0.00
2018-06-19T01:20:09.568Z,0.00
2018-06-19T01:21:09.571Z,0.00
2018-06-19T01:22:09.571Z,0.00
2018-06-19T01:23:09.573Z,0.00
2018-06-19T01:24:09.575Z,0.00
2018-06-19T01:25:09.576Z,0.00
2018-06-19T01:26:09.577Z,0.00
2018-06-19T01:27:09.581Z,0.00
2018-06-19T01:28:09.581Z,0.00
2018-06-19T01:29:09.583Z,0.00
2018-06-19T01:30:09.583Z,0.00
2018-06-19T01:31:09.586Z,0.00
2018-06-19T01:32:09.591Z,0.00
2018-06-19T01:33:09.593Z,0.00
2018-06-19T01:34:09.590Z,0.00
2018-06-19T01:35:09.592Z,0.00
2018-06-19T01:36:09.594Z,0.00
2018-06-19T01:37:09.596Z,0.00
2018-06-19T01:38:09.714Z,0.00
2018-06-19T01:39:09.600Z,0.00
2018-06-19T01:40:09.602Z,0.00
2018-06-19T01:41:09.605Z,0.00
2018-06-19T01:42:09.604Z,0.00
2018-06-19T01:43:09.606Z,0.00
2018-06-19T01:44:09.608Z,0.00
2018-06-19T01:45:09.609Z,0.00
2018-06-19T01:46:09.609Z,0.00
2018-06-19T01:47:09.612Z,0.00
2018-06-19T01:48:09.613Z,0.00
2018-06-19T01:49:09.614Z,0.00
2018-06-19T01:50:09.618Z,0.00
2018-06-19T01:51:09.617Z,0.00
2018-06-19T01:52:09.619Z,0.00
2018-06-19T01:53:09.621Z,0.00
2018-06-19T01:54:09.622Z,0.00
2018-06-19T01:55:09.624Z,0.00
2018-06-19T01:56:09.625Z,0.00
2018-06-19T01:57:09.629Z,0.00
2018-06-19T01:58:09.627Z,0.00
2018-06-19T01:59:09.629Z,0.00
2018-06-19T02:00:09.634Z,0.00
2018-06-19T02:01:09.633Z,0.00
2018-06-19T02:02:09.634Z,0.00
2018-06-19T02:03:09.634Z,0.00
2018-06-19T02:04:09.638Z,0.00
2018-06-19T02:05:09.638Z,0.00
2018-06-19T02:06:09.640Z,0.00
2018-06-19T02:07:09.640Z,0.00
2018-06-19T02:08:09.642Z,0.00
2018-06-19T02:09:09.643Z,0.00
2018-06-19T02:10:09.645Z,0.00
2018-06-19T02:11:09.645Z,0.00
2018-06-19T02:12:09.648Z,0.00
2018-06-19T02:13:09.649Z,0.00
2018-06-19T02:14:09.651Z,0.00
2018-06-19T02:15:09.651Z,0.00
2018-06-19T02:16:09.654Z,0.00
2018-06-19T02:17:09.655Z,0.00
2018-06-19T02:18:09.655Z,0.00
2018-06-19T02:19:09.658Z,0.00
2018-06-19T02:20:09.664Z,0.00
2018-06-19T02:21:09.660Z,0.00
2018-06-19T02:22:09.659Z,0.00
2018-06-19T02:23:09.662Z,0.00
2018-06-19T02:24:09.663Z,0.00
2018-06-19T02:25:09.665Z,0.00
2018-06-19T02:26:09.666Z,0.00
2018-06-19T02:27:09.668Z,0.00
2018-06-19T02:28:09.669Z,0.00
2018-06-19T02:29:09.670Z,0.00
2018-06-19T02:30:09.671Z,0.00
2018-06-19T02:31:09.681Z,0.00
2018-06-19T02:32:09.674Z,0.00
2018-06-19T02:33:09.676Z,0.00
2018-06-19T02:34:09.677Z,0.00
2018-06-19T02:35:09.678Z,0.00
2018-06-19T02:36:09.680Z,0.00
2018-06-19T02:37:09.681Z,0.00
2018-06-19T02:38:09.682Z,0.00
2018-06-19T02:39:09.683Z,0.00
2018-06-19T02:40:09.685Z,0.00
2018-06-19T02:41:09.686Z,0.00
2018-06-19T02:42:09.687Z,0.00
2018-06-19T02:43:09.687Z,0.00
2018-06-19T02:44:09.690Z,0.00
2018-06-19T02:45:09.692Z,0.00
2018-06-19T02:46:09.692Z,0.00
2018-06-19T02:47:09.700Z,0.00
2018-06-19T02:48:09.698Z,0.00
2018-06-19T02:49:09.698Z,0.00
2018-06-19T02:50:09.698Z,0.00
2018-06-19T02:51:09.699Z,0.00
2018-06-19T02:52:09.701Z,0.00
2018-06-19T02:53:09.702Z,0.00
2018-06-19T02:54:09.701Z,0.00
2018-06-19T02:55:09.706Z,0.00
2018-06-19T02:56:09.706Z,0.00
2018-06-19T02:57:09.709Z,0.00
2018-06-19T02:58:09.708Z,0.00
2018-06-19T02:59:09.713Z,0.00
2018-06-19T03:00:09.711Z,0.00
2018-06-19T03:01:09.713Z,0.00
2018-06-19T03:02:09.713Z,0.00
2018-06-19T03:03:09.715Z,0.00
2018-06-19T03:04:09.725Z,0.00
2018-06-19T03:05:09.718Z,0.00
2018-06-19T03:06:09.718Z,0.00
2018-06-19T03:07:09.720Z,0.00
2018-06-19T03:08:09.722Z,0.00
2018-06-19T03:09:09.723Z,0.00
2018-06-19T03:10:09.724Z,0.00
2018-06-19T03:11:09.726Z,0.00
2018-06-19T03:12:09.729Z,0.00
2018-06-19T03:13:09.728Z,0.00
2018-06-19T03:14:09.729Z,0.00
2018-06-19T03:15:09.731Z,0.00
2018-06-19T03:16:09.784Z,0.00
2018-06-19T03:17:09.734Z,0.00
2018-06-19T03:18:09.735Z,0.00
2018-06-19T03:19:09.740Z,0.00
2018-06-19T03:20:09.740Z,0.00
2018-06-19T03:21:09.739Z,0.00
2018-06-19T03:22:09.741Z,0.00
2018-06-19T03:23:09.741Z,0.00
2018-06-19T03:24:09.746Z,0.00
2018-06-19T03:25:09.744Z,0.00
2018-06-19T03:26:09.747Z,0.00
2018-06-19T03:27:09.747Z,0.00
2018-06-19T03:28:09.748Z,0.00
2018-06-19T03:29:09.750Z,0.00
2018-06-19T03:30:09.845Z,0.00
2018-06-19T03:31:09.762Z,0.00
2018-06-19T03:32:09.755Z,0.00
2018-06-19T03:33:09.756Z,0.00
2018-06-19T03:34:09.756Z,5.63
2018-06-19T03:35:09.757Z,5.63
2018-06-19T03:36:09.758Z,5.63
2018-06-19T03:37:09.761Z,5.63
2018-06-19T03:38:09.761Z,5.63
2018-06-19T03:39:09.764Z,5.63
2018-06-19T03:40:09.764Z,5.63
2018-06-19T03:41:09.767Z,5.63
2018-06-19T03:42:09.765Z,5.63
2018-06-19T03:43:09.768Z,5.63
2018-06-19T03:44:09.769Z,11.25
2018-06-19T03:45:09.771Z,11.25
2018-06-19T03:46:09.772Z,11.25
2018-06-19T03:47:09.773Z,11.25
2018-06-19T03:48:09.775Z,11.25
2018-06-19T03:49:09.777Z,11.25
2018-06-19T03:50:09.777Z,11.25
2018-06-19T03:51:09.780Z,11.25
2018-06-19T03:52:09.783Z,11.25
2018-06-19T03:53:09.783Z,11.25
2018-06-19T03:54:09.784Z,11.25
2018-06-19T03:55:09.785Z,11.25
2018-06-19T03:56:09.791Z,11.25
2018-06-19T03:57:09.790Z,11.25
2018-06-19T03:58:09.788Z,11.25
2018-06-19T03:59:09.790Z,11.25
2018-06-19T04:00:09.792Z,11.25
2018-06-19T04:01:09.793Z,11.25
2018-06-19T04:02:09.802Z,11.25
2018-06-19T04:03:09.795Z,11.25
2018-06-19T04:04:09.798Z,11.25
2018-06-19T04:05:09.802Z,16.88
2018-06-19T04:06:09.800Z,16.88
2018-06-19T04:07:09.801Z,22.50
2018-06-19T04:08:09.803Z,22.50
2018-06-19T04:09:09.805Z,22.50
2018-06-19T04:10:09.809Z,22.50
2018-06-19T04:11:09.807Z,22.50
2018-06-19T04:12:09.808Z,22.50
2018-06-19T04:13:09.810Z,22.50
2018-06-19T04:14:09.811Z,22.50
2018-06-19T04:15:09.816Z,16.88
2018-06-19T04:16:09.814Z,16.88
2018-06-19T04:17:09.877Z,16.88
2018-06-19T04:18:09.816Z,16.88
2018-06-19T04:19:09.818Z,22.50
2018-06-19T04:20:09.820Z,22.50
2018-06-19T04:21:09.821Z,28.13
2018-06-19T04:22:09.822Z,33.75
2018-06-19T04:23:09.825Z,33.75
2018-06-19T04:24:09.825Z,39.38
2018-06-19T04:25:09.829Z,45.00
2018-06-19T04:26:09.827Z,45.00
2018-06-19T04:27:09.829Z,45.00
2018-06-19T04:28:09.832Z,45.00
2018-06-19T04:29:09.833Z,45.00
2018-06-19T04:30:09.833Z,45.00
2018-06-19T04:31:09.837Z,50.63
2018-06-19T04:32:09.836Z,50.63
2018-06-19T04:33:09.837Z,39.38
2018-06-19T04:34:09.840Z,45.00
2018-06-19T04:35:09.840Z,50.63
2018-06-19T04:36:09.842Z,45.00
2018-06-19T04:37:09.842Z,45.00
2018-06-19T04:38:09.845Z,39.38
2018-06-19T04:39:09.846Z,33.75
2018-06-19T04:40:09.849Z,33.75
2018-06-19T04:41:09.849Z,33.75
2018-06-19T04:42:09.883Z,39.38
2018-06-19T04:43:09.851Z,50.63
2018-06-19T04:44:09.853Z,50.63
2018-06-19T04:45:09.855Z,56.25
2018-06-19T04:46:09.855Z,56.25
2018-06-19T04:47:09.858Z,50.63
2018-06-19T04:48:09.859Z,50.63
2018-06-19T04:49:09.860Z,50.63
2018-06-19T04:50:09.860Z,56.25
2018-06-19T04:51:09.862Z,56.25
2018-06-19T04:52:09.864Z,56.25
2018-06-19T04:53:09.867Z,56.25
2018-06-19T04:54:09.865Z,56.25
2018-06-19T04:55:09.868Z,56.25
2018-06-19T04:56:09.869Z,61.88
2018-06-19T04:57:09.871Z,56.25
2018-06-19T04:58:09.871Z,56.25
2018-06-19T04:59:09.874Z,50.63
2018-06-19T05:00:09.875Z,50.63
2018-06-19T05:01:09.877Z,56.25
2018-06-19T05:02:09.881Z,56.25
2018-06-19T05:03:09.878Z,61.88
2018-06-19T05:04:09.880Z,61.88
2018-06-19T05:05:09.884Z,61.88
2018-06-19T05:06:09.885Z,61.88
2018-06-19T05:07:09.885Z,61.88
2018-06-19T05:08:09.886Z,50.63
2018-06-19T05:09:09.888Z,50.63
2018-06-19T05:10:09.889Z,50.63
2018-06-19T05:11:09.890Z,56.25
2018-06-19T05:12:09.892Z,61.88
2018-06-19T05:13:09.893Z,61.88
2018-06-19T05:14:09.894Z,67.50
2018-06-19T05:15:09.896Z,67.50
2018-06-19T05:16:09.901Z,73.13
2018-06-19T05:17:09.899Z,73.13
2018-06-19T05:18:09.904Z,78.75
2018-06-19T05:19:09.902Z,90.00
2018-06-19T05:20:09.958Z,95.63
2018-06-19T05:21:09.905Z,90.00
2018-06-19T05:22:09.906Z,90.00
2018-06-19T05:23:09.908Z,90.00
2018-06-19T05:24:09.910Z,95.63
2018-06-19T05:25:09.915Z,101.25
2018-06-19T05:26:09.913Z,90.00
2018-06-19T05:27:09.914Z,90.00
2018-06-19T05:28:09.918Z,95.63
2018-06-19T05:29:09.918Z,90.00
2018-06-19T05:30:09.921Z,90.00
2018-06-19T05:31:09.921Z,90.00
2018-06-19T05:32:09.926Z,90.00
2018-06-19T05:33:09.925Z,90.00
2018-06-19T05:34:09.926Z,95.63
2018-06-19T05:35:09.928Z,101.25
2018-06-19T05:36:09.930Z,101.25
2018-06-19T05:37:09.932Z,106.88
2018-06-19T05:38:09.936Z,106.88
2018-06-19T05:39:09.935Z,101.25
2018-06-19T05:40:09.936Z,112.50
2018-06-19T05:41:09.939Z,112.50
2018-06-19T05:42:09.939Z,106.88
2018-06-19T05:43:09.947Z,101.25
2018-06-19T05:44:09.943Z,106.88
2018-06-19T05:45:09.946Z,95.63
2018-06-19T05:46:09.994Z,84.38
2018-06-19T05:47:09.953Z,78.75
2018-06-19T05:48:09.950Z,78.75
2018-06-19T05:49:09.953Z,84.38
2018-06-19T05:50:09.953Z,78.75
2018-06-19T05:51:09.955Z,73.13
2018-06-19T05:52:09.960Z,78.75
2018-06-19T05:53:09.960Z,78.75
2018-06-19T05:54:09.962Z,78.75
2018-06-19T05:55:09.963Z,90.00
2018-06-19T05:56:09.986Z,101.25
2018-06-19T05:57:09.966Z,106.88
2018-06-19T05:58:09.968Z,106.88
2018-06-19T05:59:09.970Z,95.63
2018-06-19T06:00:09.986Z,90.00
2018-06-19T06:01:09.974Z,101.25
2018-06-19T06:02:09.975Z,112.50
2018-06-19T06:03:09.977Z,129.38
2018-06-19T06:04:09.978Z,129.38
2018-06-19T06:05:09.981Z,135.00
2018-06-19T06:06:09.982Z,135.00
2018-06-19T06:07:09.988Z,129.38
2018-06-19T06:08:09.987Z,123.75
2018-06-19T06:09:09.988Z,135.00
2018-06-19T06:10:09.989Z,146.25
2018-06-19T06:11:10.003Z,151.88
2018-06-19T06:12:09.993Z,146.25
2018-06-19T06:13:09.996Z,151.88
2018-06-19T06:14:09.996Z,146.25
2018-06-19T06:15:09.999Z,146.25
2018-06-19T06:16:10.001Z,140.63
2018-06-19T06:17:10.015Z,146.25
2018-06-19T06:18:10.003Z,135.00
2018-06-19T06:19:10.006Z,140.63
2018-06-19T06:20:10.008Z,146.25
2018-06-19T06:21:10.012Z,180.00
2018-06-19T06:22:10.020Z,202.50
2018-06-19T06:23:10.014Z,196.88
2018-06-19T06:24:10.016Z,163.13
2018-06-19T06:25:10.018Z,135.00
2018-06-19T06:26:10.020Z,135.00
2018-06-19T06:27:10.021Z,135.00
2018-06-19T06:28:10.023Z,140.63
2018-06-19T06:29:10.025Z,135.00
2018-06-19T06:30:10.028Z,135.00
2018-06-19T06:31:10.029Z,157.50
2018-06-19T06:32:10.032Z,163.13
2018-06-19T06:33:10.033Z,146.25
2018-06-19T06:34:10.035Z,129.38
2018-06-19T06:35:10.037Z,118.13
2018-06-19T06:36:10.039Z,123.75
2018-06-19T06:37:10.041Z,135.00
2018-06-19T06:38:10.042Z,135.00
2018-06-19T06:39:10.044Z,157.50
2018-06-19T06:40:10.047Z,174.38
2018-06-19T06:41:10.049Z,191.25
2018-06-19T06:42:10.050Z,219.38
2018-06-19T06:43:10.053Z,196.88
2018-06-19T06:44:10.057Z,191.25
2018-06-19T06:45:10.057Z,191.25
2018-06-19T06:46:10.059Z,174.38
2018-06-19T06:47:10.064Z,174.38
2018-06-19T06:48:10.064Z,191.25
2018-06-19T06:49:10.066Z,196.88
2018-06-19T06:50:10.141Z,196.88
2018-06-19T06:51:10.069Z,180.00
2018-06-19T06:52:10.075Z,151.88
2018-06-19T06:53:10.074Z,146.25
2018-06-19T06:54:10.076Z,151.88
2018-06-19T06:55:10.078Z,174.38
2018-06-19T06:56:10.082Z,180.00
2018-06-19T06:57:10.084Z,180.00
2018-06-19T06:58:10.085Z,168.75
2018-06-19T06:59:10.087Z,146.25
2018-06-19T07:00:10.092Z,140.63
2018-06-19T07:01:10.101Z,140.63
2018-06-19T07:02:10.095Z,129.38
2018-06-19T07:03:10.097Z,129.38
2018-06-19T07:04:10.102Z,129.38
2018-06-19T07:05:10.104Z,129.38
2018-06-19T07:06:10.104Z,140.63
2018-06-19T07:07:10.109Z,140.63
2018-06-19T07:08:10.112Z,135.00
2018-06-19T07:09:10.112Z,129.38
2018-06-19T07:10:10.144Z,135.00
2018-06-19T07:11:10.118Z,146.25
2018-06-19T07:12:10.119Z,163.13
2018-06-19T07:13:10.123Z,168.75
2018-06-19T07:14:10.124Z,168.75
2018-06-19T07:15:10.126Z,163.13
2018-06-19T07:16:10.130Z,163.13
2018-06-19T07:17:10.133Z,163.13
2018-06-19T07:18:10.135Z,140.63
2018-06-19T07:19:10.193Z,129.38
2018-06-19T07:20:10.140Z,118.13
2018-06-19T07:21:10.142Z,129.38
2018-06-19T07:22:10.144Z,151.88
2018-06-19T07:23:10.147Z,168.75
2018-06-19T07:24:10.151Z,191.25
2018-06-19T07:25:10.153Z,213.75
2018-06-19T07:26:10.177Z,208.13
2018-06-19T07:27:10.156Z,208.13
2018-06-19T07:28:10.160Z,225.00
2018-06-19T07:29:10.161Z,230.63
2018-06-19T07:30:10.162Z,225.00
2018-06-19T07:31:10.167Z,230.63
2018-06-19T07:32:10.169Z,236.25
2018-06-19T07:33:10.171Z,219.38
2018-06-19T07:34:10.173Z,230.63
2018-06-19T07:35:10.176Z,253.13
2018-06-19T07:36:10.179Z,253.13
2018-06-19T07:37:10.181Z,241.88
2018-06-19T07:38:10.242Z,247.50
2018-06-19T07:39:10.189Z,253.13
2018-06-19T07:40:10.194Z,230.63
2018-06-19T07:41:10.192Z,230.63
2018-06-19T07:42:10.195Z,225.00
2018-06-19T07:43:10.197Z,202.50
2018-06-19T07:44:10.248Z,185.63
2018-06-19T07:45:10.203Z,196.88
2018-06-19T07:46:10.209Z,225.00
2018-06-19T07:47:10.209Z,264.38
2018-06-19T07:48:10.212Z,247.50
2018-06-19T07:49:10.214Z,196.88
2018-06-19T07:50:10.218Z,202.50
2018-06-19T07:51:10.223Z,219.38
2018-06-19T07:52:10.223Z,219.38
2018-06-19T07:53:10.226Z,196.88
2018-06-19T07:54:10.228Z,191.25
2018-06-19T07:55:10.231Z,219.38
2018-06-19T07:56:10.236Z,258.75
2018-06-19T07:57:10.242Z,247.50
2018-06-19T07:58:10.240Z,241.88
2018-06-19T07:59:10.243Z,236.25
2018-06-19T08:00:10.247Z,225.00
2018-06-19T08:01:10.251Z,208.13
2018-06-19T08:02:10.252Z,219.38
2018-06-19T08:03:10.256Z,219.38
2018-06-19T08:04:10.259Z,258.75
2018-06-19T08:05:10.262Z,264.38
2018-06-19T08:06:10.264Z,208.13
2018-06-19T08:07:10.268Z,196.88
2018-06-19T08:08:10.274Z,213.75
2018-06-19T08:09:10.275Z,247.50
2018-06-19T08:10:10.277Z,247.50
2018-06-19T08:11:10.280Z,230.63
2018-06-19T08:12:10.285Z,225.00
2018-06-19T08:13:10.290Z,219.38
2018-06-19T08:14:10.290Z,241.88
2018-06-19T08:15:10.295Z,230.63
2018-06-19T08:16:10.297Z,225.00
2018-06-19T08:17:10.301Z,236.25
2018-06-19T08:18:10.303Z,247.50
2018-06-19T08:19:10.306Z,247.50
2018-06-19T08:20:10.309Z,253.13
2018-06-19T08:21:10.313Z,253.13
2018-06-19T08:22:10.317Z,264.38
2018-06-19T08:23:10.321Z,275.63
2018-06-19T08:24:10.373Z,303.75
2018-06-19T08:25:10.326Z,275.63
2018-06-19T08:26:10.328Z,258.75
2018-06-19T08:27:10.333Z,258.75
2018-06-19T08:28:10.335Z,264.38
2018-06-19T08:29:10.340Z,281.25
2018-06-19T08:30:10.341Z,309.38
2018-06-19T08:31:10.347Z,365.63
2018-06-19T08:32:10.349Z,365.63
2018-06-19T08:33:10.352Z,309.38
2018-06-19T08:34:10.355Z,264.38
2018-06-19T08:35:10.359Z,286.88
2018-06-19T08:36:10.369Z,331.88
2018-06-19T08:37:10.365Z,331.88
2018-06-19T08:38:10.370Z,399.38
2018-06-19T08:39:10.375Z,421.88
2018-06-19T08:40:10.377Z,371.25
2018-06-19T08:41:10.380Z,376.88
2018-06-19T08:42:10.383Z,382.50
2018-06-19T08:43:10.386Z,438.75
2018-06-19T08:44:10.390Z,421.88
2018-06-19T08:45:10.394Z,483.75
2018-06-19T08:46:10.398Z,478.13
2018-06-19T08:47:10.402Z,466.88
2018-06-19T08:48:10.404Z,421.88
2018-06-19T08:49:10.410Z,399.38
2018-06-19T08:50:10.411Z,376.88
2018-06-19T08:51:10.416Z,405.00
2018-06-19T08:52:10.421Z,483.75
2018-06-19T08:53:10.424Z,534.38
2018-06-19T08:54:10.427Z,405.00
2018-06-19T08:55:10.489Z,438.75
2018-06-19T08:56:10.436Z,410.63
2018-06-19T08:57:10.442Z,421.88
2018-06-19T08:58:10.444Z,523.13
2018-06-19T08:59:10.449Z,680.63
2018-06-19T09:00:10.476Z,675.00
2018-06-19T09:01:10.457Z,489.38
2018-06-19T09:02:10.464Z,483.75
2018-06-19T09:03:10.466Z,489.38
2018-06-19T09:04:10.474Z,483.75
2018-06-19T09:05:10.476Z,495.00
2018-06-19T09:06:10.480Z,455.63
2018-06-19T09:07:10.483Z,388.13
2018-06-19T09:08:10.489Z,405.00
2018-06-19T09:09:10.494Z,427.50
2018-06-19T09:10:10.498Z,427.50
2018-06-19T09:11:10.503Z,444.38
2018-06-19T09:12:10.510Z,489.38
2018-06-19T09:13:10.513Z,376.88
2018-06-19T09:14:10.517Z,326.25
2018-06-19T09:15:10.526Z,376.88
2018-06-19T09:16:10.528Z,472.50
2018-06-19T09:17:10.534Z,410.63
2018-06-19T09:18:10.536Z,371.25
2018-06-19T09:19:10.541Z,416.25
2018-06-19T09:20:10.579Z,461.25
2018-06-19T09:21:10.552Z,376.88
2018-06-19T09:22:10.555Z,348.75
2018-06-19T09:23:10.564Z,337.50
2018-06-19T09:24:10.571Z,365.63
2018-06-19T09:25:10.571Z,354.38
2018-06-19T09:26:10.574Z,360.00
2018-06-19T09:27:10.580Z,421.88
2018-06-19T09:28:10.589Z,433.13
2018-06-19T09:29:10.590Z,438.75
2018-06-19T09:30:10.594Z,528.75
2018-06-19T09:31:10.602Z,551.25
2018-06-19T09:32:10.603Z,691.88
2018-06-19T09:33:10.612Z,703.13
2018-06-19T09:34:10.613Z,585.00
2018-06-19T09:35:10.619Z,551.25
2018-06-19T09:36:10.624Z,466.88
2018-06-19T09:37:10.629Z,382.50
2018-06-19T09:38:10.632Z,388.13
2018-06-19T09:39:10.639Z,450.00
2018-06-19T09:40:10.644Z,421.88
2018-06-19T09:41:10.649Z,382.50
2018-06-19T09:42:10.654Z,360.00
2018-06-19T09:43:10.662Z,382.50
2018-06-19T09:44:10.666Z,421.88
2018-06-19T09:45:10.670Z,416.25
2018-06-19T09:46:10.674Z,393.75
2018-06-19T09:47:10.685Z,410.63
2018-06-19T09:48:10.689Z,393.75
2018-06-19T09:49:10.691Z,388.13
2018-06-19T09:50:10.697Z,354.38
2018-06-19T09:51:10.700Z,354.38
2018-06-19T09:52:10.706Z,371.25
2018-06-19T09:53:10.712Z,371.25
2018-06-19T09:54:10.717Z,388.13
2018-06-19T09:55:10.725Z,382.50
2018-06-19T09:56:10.728Z,382.50
2018-06-19T09:57:10.734Z,360.00
2018-06-19T09:58:10.738Z,371.25
2018-06-19T09:59:10.824Z,421.88
2018-06-19T10:00:10.750Z,410.63
2018-06-19T10:01:10.761Z,393.75
2018-06-19T10:02:10.760Z,438.75
2018-06-19T10:03:10.766Z,438.75
2018-06-19T10:04:10.773Z,410.63
2018-06-19T10:05:10.777Z,399.38
2018-06-19T10:06:10.798Z,348.75
2018-06-19T10:07:10.789Z,348.75
2018-06-19T10:08:10.792Z,354.38
2018-06-19T10:09:10.799Z,371.25
2018-06-19T10:10:10.804Z,388.13
2018-06-19T10:11:10.809Z,382.50
2018-06-19T10:12:10.862Z,388.13
2018-06-19T10:13:10.821Z,371.25
2018-06-19T10:14:10.825Z,393.75
2018-06-19T10:15:10.831Z,483.75
2018-06-19T10:16:10.841Z,663.75
2018-06-19T10:17:10.843Z,528.75
2018-06-19T10:18:10.847Z,399.38
2018-06-19T10:19:10.852Z,360.00
2018-06-19T10:20:10.859Z,376.88
2018-06-19T10:21:10.865Z,360.00
2018-06-19T10:22:10.869Z,331.88
2018-06-19T10:23:10.875Z,360.00
2018-06-19T10:24:10.881Z,343.13
2018-06-19T10:25:10.889Z,326.25
2018-06-19T10:26:10.890Z,292.50
2018-06-19T10:27:10.897Z,247.50
2018-06-19T10:28:10.903Z,225.00
2018-06-19T10:29:10.914Z,213.75
2018-06-19T10:30:10.914Z,219.38
2018-06-19T10:31:10.919Z,219.38
2018-06-19T10:32:10.927Z,191.25
2018-06-19T10:33:10.933Z,185.63
2018-06-19T10:34:10.937Z,208.13
2018-06-19T10:35:10.945Z,225.00
2018-06-19T10:36:10.951Z,213.75
2018-06-19T10:37:10.955Z,219.38
2018-06-19T10:38:10.960Z,219.38
2018-06-19T10:39:10.966Z,225.00
2018-06-19T10:40:11.006Z,247.50
2018-06-19T10:41:10.980Z,258.75
2018-06-19T10:42:10.982Z,275.63
2018-06-19T10:43:10.988Z,264.38
2018-06-19T10:44:10.994Z,281.25
2018-06-19T10:45:10.999Z,331.88
2018-06-19T10:46:11.007Z,371.25
2018-06-19T10:47:11.009Z,371.25
2018-06-19T10:48:11.015Z,371.25
2018-06-19T10:49:11.021Z,382.50
2018-06-19T10:50:11.027Z,371.25
2018-06-19T10:51:11.033Z,354.38
2018-06-19T10:52:11.039Z,376.88
2018-06-19T10:53:11.044Z,399.38
2018-06-19T10:54:11.049Z,416.25
2018-06-19T10:55:11.053Z,365.63
2018-06-19T10:56:11.060Z,388.13
2018-06-19T10:57:11.067Z,427.50
2018-06-19T10:58:11.070Z,433.13
2018-06-19T10:59:11.077Z,365.63
2018-06-19T11:00:11.083Z,360.00
2018-06-19T11:01:11.089Z,399.38
2018-06-19T11:02:11.094Z,568.13
2018-06-19T11:03:11.101Z,630.00
2018-06-19T11:04:11.107Z,601.88
2018-06-19T11:05:11.142Z,573.75
2018-06-19T11:06:11.118Z,483.75
2018-06-19T11:07:11.185Z,489.38
2018-06-19T11:08:11.177Z,534.38
2018-06-19T11:09:11.138Z,680.63
2018-06-19T11:10:11.141Z,691.88
2018-06-19T11:11:11.148Z,641.25
2018-06-19T11:12:11.154Z,753.75
2018-06-19T11:13:11.161Z,832.50
2018-06-19T11:14:11.205Z,787.50
2018-06-19T11:15:11.173Z,691.88
2018-06-19T11:16:11.180Z,568.13
2018-06-19T11:17:11.187Z,483.75
2018-06-19T11:18:11.193Z,455.63
2018-06-19T11:19:11.200Z,545.63
2018-06-19T11:20:11.207Z,568.13
2018-06-19T11:21:11.214Z,540.00
2018-06-19T11:22:11.220Z,551.25
2018-06-19T11:23:11.228Z,444.38
2018-06-19T11:24:11.235Z,433.13
2018-06-19T11:25:11.240Z,450.00
2018-06-19T11:26:11.248Z,399.38
2018-06-19T11:27:11.258Z,337.50
2018-06-19T11:28:11.261Z,298.13
2018-06-19T11:29:11.268Z,253.13
2018-06-19T11:30:11.275Z,247.50
2018-06-19T11:31:11.281Z,298.13
2018-06-19T11:32:11.289Z,281.25
2018-06-19T11:33:11.295Z,253.13
2018-06-19T11:34:11.301Z,360.00
2018-06-19T11:35:11.309Z,534.38
2018-06-19T11:36:11.315Z,590.63
2018-06-19T11:37:11.322Z,579.38
2018-06-19T11:38:11.335Z,573.75
2018-06-19T11:39:11.334Z,573.75
2018-06-19T11:40:11.342Z,545.63
2018-06-19T11:41:11.349Z,478.13
2018-06-19T11:42:11.355Z,466.88
2018-06-19T11:43:11.361Z,461.25
2018-06-19T11:44:11.368Z,421.88
2018-06-19T11:45:11.376Z,393.75
2018-06-19T11:46:11.382Z,315.00
2018-06-19T11:47:11.389Z,292.50
2018-06-19T11:48:11.395Z,337.50
2018-06-19T11:49:11.427Z,376.88
2018-06-19T11:50:11.412Z,421.88
2018-06-19T11:51:11.416Z,444.38
2018-06-19T11:52:11.423Z,478.13
2018-06-19T11:53:11.430Z,534.38
2018-06-19T11:54:11.436Z,528.75
2018-06-19T11:55:11.443Z,528.75
2018-06-19T11:56:11.451Z,461.25
2018-06-19T11:57:11.458Z,405.00
2018-06-19T11:58:11.463Z,360.00
2018-06-19T11:59:11.471Z,360.00
2018-06-19T12:00:11.481Z,399.38
2018-06-19T12:01:11.544Z,421.88
2018-06-19T12:02:11.490Z,466.88
2018-06-19T12:03:11.497Z,489.38
2018-06-19T12:04:11.506Z,455.63
2018-06-19T12:05:11.513Z,376.88
2018-06-19T12:06:11.518Z,348.75
2018-06-19T12:07:11.525Z,326.25
2018-06-19T12:08:11.537Z,298.13
2018-06-19T12:09:11.540Z,281.25
2018-06-19T12:10:11.546Z,264.38
2018-06-19T12:11:11.553Z,264.38
2018-06-19T12:12:11.561Z,292.50
2018-06-19T12:13:11.586Z,292.50
2018-06-19T12:14:11.575Z,247.50
2018-06-19T12:15:11.581Z,213.75
2018-06-19T12:16:11.588Z,264.38
2018-06-19T12:17:11.595Z,264.38
2018-06-19T12:18:11.601Z,219.38
2018-06-19T12:19:11.607Z,180.00
2018-06-19T12:20:11.615Z,219.38
2018-06-19T12:21:11.624Z,253.13
2018-06-19T12:22:11.628Z,275.63
2018-06-19T12:23:11.635Z,281.25
2018-06-19T12:24:11.642Z,270.00
2018-06-19T12:25:11.650Z,264.38
2018-06-19T12:26:11.655Z,303.75
2018-06-19T12:27:11.662Z,331.88
2018-06-19T12:28:11.669Z,348.75
2018-06-19T12:29:11.674Z,365.63
2018-06-19T12:30:11.682Z,388.13
2018-06-19T12:31:11.688Z,388.13
2018-06-19T12:32:11.696Z,388.13
2018-06-19T12:33:11.702Z,405.00
2018-06-19T12:34:11.708Z,466.88
2018-06-19T12:35:11.715Z,556.88
2018-06-19T12:36:11.725Z,630.00
2018-06-19T12:37:11.729Z,646.88
2018-06-19T12:38:11.734Z,658.13
2018-06-19T12:39:11.741Z,686.25
2018-06-19T12:40:11.753Z,680.63
2018-06-19T12:41:11.755Z,675.00
2018-06-19T12:42:11.761Z,669.38
2018-06-19T12:43:11.771Z,697.50
2018-06-19T12:44:11.779Z,630.00
2018-06-19T12:45:11.783Z,641.25
2018-06-19T12:46:11.789Z,658.13